Time;durP1;ratioP1;P1;durP2;ratioP2;P2;SDS_P1;SDS_P2;PMS_P1;PMS_P2;Temp;Humidity;BMP_temperature;BMP_pressure;BME280_temperature;BME280_humidity;BME280_pressure;Samples;Min_cycle;Max_cycle;Signal;HPM_P1;HPM_P2
2023/11/22 00:00:55;;;;;;;19.67;11.68;;;6.10;99.90;;;;;;5062065;28;20028;-73
2023/11/22 00:03:21;;;;;;;18.58;11.93;;;6.10;99.90;;;;;;5068929;28;20028;-72
2023/11/22 00:05:46;;;;;;;19.30;11.88;;;6.10;99.90;;;;;;5068896;28;20024;-73
2023/11/22 00:08:12;;;;;;;18.05;11.27;;;6.10;99.90;;;;;;5051029;28;20848;-73
2023/11/22 00:10:38;;;;;;;15.48;10.82;;;6.10;99.90;;;;;;5068614;28;20051;-73
2023/11/22 00:13:05;;;;;;;16.30;10.73;;;6.10;99.90;;;;;;5069135;28;20136;-73
2023/11/22 00:15:30;;;;;;;15.90;10.55;;;6.00;99.90;;;;;;5068229;28;20043;-72
2023/11/22 00:17:57;;;;;;;17.27;10.95;;;6.00;99.90;;;;;;5050982;28;20020;-72
2023/11/22 00:20:23;;;;;;;17.73;10.98;;;6.00;99.90;;;;;;5050403;28;20400;-73
2023/11/22 00:22:50;;;;;;;15.07;10.23;;;6.00;99.90;;;;;;5050864;28;20024;-72
2023/11/22 00:25:15;;;;;;;15.93;10.57;;;6.00;99.90;;;;;;5050504;28;20032;-73
2023/11/22 00:27:41;;;;;;;16.58;10.02;;;6.00;99.90;;;;;;5068685;28;20389;-73
2023/11/22 00:30:09;;;;;;;16.02;10.43;;;6.00;99.90;;;;;;5050253;28;20131;-72
2023/11/22 00:32:35;;;;;;;22.70;11.57;;;6.00;99.90;;;;;;5050435;28;20021;-73
2023/11/22 00:35:01;;;;;;;17.23;11.52;;;6.00;99.90;;;;;;5040225;28;20029;-73
2023/11/22 00:37:26;;;;;;;16.92;11.45;;;6.00;99.90;;;;;;5064174;28;20079;-73
2023/11/22 00:39:52;;;;;;;18.15;10.95;;;6.00;99.90;;;;;;5067967;28;20032;-72
2023/11/22 00:42:20;;;;;;;17.05;10.38;;;6.00;99.90;;;;;;5068515;28;20052;-73
2023/11/22 00:44:47;;;;;;;18.65;10.75;;;6.00;99.90;;;;;;5054007;28;20058;-73
2023/11/22 00:47:13;;;;;;;17.40;10.43;;;6.00;99.90;;;;;;5068567;28;20121;-72
2023/11/22 00:49:38;;;;;;;18.63;11.07;;;6.00;99.90;;;;;;5068056;28;20421;-73
2023/11/22 00:52:04;;;;;;;17.33;11.18;;;5.90;99.90;;;;;;5067997;28;20031;-73
2023/11/22 00:54:30;;;;;;;18.05;11.82;;;5.90;99.90;;;;;;5067718;28;20021;-73
2023/11/22 00:56:55;;;;;;;17.52;10.60;;;5.90;99.90;;;;;;5068076;28;20059;-73
2023/11/22 00:59:21;;;;;;;15.63;9.98;;;5.90;99.90;;;;;;5052695;28;20083;-73
2023/11/22 01:01:47;;;;;;;18.35;11.32;;;5.90;99.90;;;;;;5068278;28;20508;-72
2023/11/22 01:04:13;;;;;;;18.50;11.77;;;5.90;99.90;;;;;;5067659;28;20055;-73
2023/11/22 01:06:40;;;;;;;18.38;11.05;;;5.90;99.90;;;;;;5049883;28;20107;-72
2023/11/22 01:09:08;;;;;;;15.40;9.82;;;5.80;99.90;;;;;;5067683;28;20024;-73
2023/11/22 01:11:34;;;;;;;14.90;9.70;;;5.80;99.90;;;;;;5067645;28;20016;-72
2023/11/22 01:14:00;;;;;;;17.15;10.52;;;5.80;99.90;;;;;;5067486;28;20021;-73
2023/11/22 01:16:26;;;;;;;16.85;10.95;;;5.80;99.90;;;;;;5067574;28;20798;-72
2023/11/22 01:18:52;;;;;;;14.77;9.18;;;5.80;99.90;;;;;;5049503;28;20101;-73
2023/11/22 01:21:19;;;;;;;16.50;10.55;;;5.80;99.90;;;;;;5067667;28;20021;-72
2023/11/22 01:23:46;;;;;;;19.30;10.18;;;5.80;99.90;;;;;;5067226;28;20460;-73
2023/11/22 01:26:12;;;;;;;16.27;9.68;;;5.80;99.90;;;;;;5067362;28;20540;-72
2023/11/22 01:28:40;;;;;;;16.48;10.38;;;5.80;99.90;;;;;;5049304;28;20017;-72
2023/11/22 01:31:05;;;;;;;16.77;9.80;;;5.80;99.90;;;;;;5067441;28;20012;-73
2023/11/22 01:33:36;;;;;;;16.55;10.10;;;5.80;99.90;;;;;;5049307;28;20535;-72
2023/11/22 01:36:02;;;;;;;16.47;10.20;;;5.70;99.90;;;;;;5067102;28;20112;-73
2023/11/22 01:38:27;;;;;;;14.68;8.90;;;5.70;99.90;;;;;;5066892;28;20139;-73
2023/11/22 01:40:53;;;;;;;15.13;9.77;;;5.70;99.90;;;;;;5067031;28;20023;-73
2023/11/22 01:43:19;;;;;;;16.48;10.27;;;5.70;99.90;;;;;;5067211;28;20394;-72
2023/11/22 01:45:45;;;;;;;16.73;10.00;;;5.70;99.90;;;;;;5066746;28;20108;-73
2023/11/22 01:48:12;;;;;;;14.90;9.02;;;5.70;99.90;;;;;;5067214;28;20111;-73
2023/11/22 01:50:42;;;;;;;18.30;10.23;;;5.70;99.90;;;;;;5048937;28;20120;-72
2023/11/22 01:53:10;;;;;;;14.05;8.77;;;5.70;99.90;;;;;;5067353;28;20048;-73
2023/11/22 01:55:36;;;;;;;20.30;10.43;;;5.70;99.90;;;;;;5048715;28;20033;-73
2023/11/22 01:58:03;;;;;;;17.45;10.40;;;5.60;99.90;;;;;;5063580;28;20036;-72
2023/11/22 02:00:32;;;;;;;16.10;10.07;;;5.60;99.90;;;;;;5055999;28;20040;-73
2023/11/22 02:02:58;;;;;;;16.38;10.43;;;5.60;99.90;;;;;;5049184;28;20028;-73
2023/11/22 02:05:24;;;;;;;18.20;10.95;;;5.60;99.90;;;;;;5066458;28;20028;-72
2023/11/22 02:07:50;;;;;;;17.60;10.25;;;5.50;99.90;;;;;;5067134;28;20412;-73
2023/11/22 02:10:16;;;;;;;16.83;9.57;;;5.50;99.90;;;;;;5066304;28;20020;-73
2023/11/22 02:12:42;;;;;;;16.40;10.40;;;5.50;99.90;;;;;;5066641;28;20044;-73
2023/11/22 02:15:08;;;;;;;16.60;10.40;;;5.50;99.90;;;;;;5048484;28;20106;-73
2023/11/22 02:17:34;;;;;;;21.55;11.60;;;5.50;99.90;;;;;;5066716;28;20386;-73
2023/11/22 02:20:00;;;;;;;20.80;11.82;;;5.40;99.90;;;;;;5048416;28;20078;-72
2023/11/22 02:22:25;;;;;;;21.20;11.50;;;5.40;99.90;;;;;;5048529;28;20025;-73
2023/11/22 02:24:51;;;;;;;18.02;11.38;;;5.40;99.90;;;;;;5066384;28;20048;-73
2023/11/22 02:27:18;;;;;;;20.13;11.95;;;5.40;99.90;;;;;;5066650;28;20062;-73
2023/11/22 02:29:45;;;;;;;19.92;10.70;;;5.40;99.90;;;;;;5048127;28;20021;-73
2023/11/22 02:32:11;;;;;;;18.90;10.95;;;5.30;99.90;;;;;;5066786;28;20060;-73
2023/11/22 02:34:36;;;;;;;20.80;10.73;;;5.30;99.90;;;;;;5066115;28;20107;-72
2023/11/22 02:37:04;;;;;;;17.17;10.60;;;5.30;99.90;;;;;;5064648;28;20133;-73
2023/11/22 02:39:45;;;;;;;16.15;10.45;;;5.30;99.90;;;;;;5046133;28;20017;-73
2023/11/22 02:42:11;;;;;;;15.98;9.90;;;5.30;99.90;;;;;;5046603;28;20025;-73
2023/11/22 02:44:37;;;;;;;16.98;9.63;;;5.20;99.90;;;;;;5046084;28;20044;-73
2023/11/22 02:47:04;;;;;;;18.00;10.52;;;5.20;99.90;;;;;;5045141;28;20057;-72
2023/11/22 02:49:29;;;;;;;16.73;9.93;;;5.20;99.90;;;;;;5045692;28;20017;-73
2023/11/22 02:51:55;;;;;;;17.85;10.18;;;5.20;99.90;;;;;;5046350;28;20037;-72
2023/11/22 02:54:21;;;;;;;16.77;10.27;;;5.20;99.90;;;;;;5046097;28;20031;-72
2023/11/22 02:56:48;;;;;;;15.95;9.70;;;5.10;99.90;;;;;;5046580;28;20013;-73
2023/11/22 02:59:13;;;;;;;16.92;10.40;;;5.20;99.90;;;;;;5015917;28;20033;-73
2023/11/22 03:01:45;;;;;;;21.77;11.27;;;5.10;99.90;;;;;;5045105;28;20017;-73
2023/11/22 03:04:10;;;;;;;19.45;10.57;;;5.10;99.90;;;;;;5046197;28;20118;-73
2023/11/22 03:06:36;;;;;;;18.98;11.05;;;5.10;99.90;;;;;;5045918;28;20120;-73
2023/11/22 03:09:02;;;;;;;18.17;11.00;;;5.10;99.90;;;;;;5046041;28;20104;-73
2023/11/22 03:11:27;;;;;;;19.13;11.23;;;5.10;99.90;;;;;;5035970;28;20498;-73
2023/11/22 03:13:53;;;;;;;19.25;10.07;;;5.00;99.90;;;;;;5046105;28;20107;-73
2023/11/22 03:16:19;;;;;;;18.95;10.13;;;5.00;99.90;;;;;;5046187;28;20021;-73
2023/11/22 03:18:44;;;;;;;19.70;10.38;;;5.00;99.90;;;;;;5046071;28;20028;-73
2023/11/22 03:21:10;;;;;;;16.90;10.07;;;5.00;99.90;;;;;;5045832;28;20017;-73
2023/11/22 03:23:36;;;;;;;18.95;10.35;;;4.90;99.90;;;;;;5048378;28;20112;-73
2023/11/22 03:26:03;;;;;;;18.73;10.30;;;4.90;99.90;;;;;;5049664;28;20021;-73
2023/11/22 03:28:31;;;;;;;17.95;10.13;;;5.00;99.90;;;;;;5039783;28;20770;-73
2023/11/22 03:30:56;;;;;;;17.25;9.13;;;4.90;99.90;;;;;;5049808;28;20277;-73
2023/11/22 03:33:22;;;;;;;18.85;10.20;;;4.90;99.90;;;;;;5049777;28;20587;-73
2023/11/22 03:35:48;;;;;;;19.10;10.43;;;4.90;99.90;;;;;;5049292;28;20027;-73
2023/11/22 03:38:13;;;;;;;20.58;11.27;;;4.90;99.90;;;;;;5061185;28;20045;-73
2023/11/22 03:40:40;;;;;;;20.50;10.90;;;4.80;99.90;;;;;;5069518;28;20028;-73
2023/11/22 03:43:08;;;;;;;19.02;10.43;;;4.80;99.90;;;;;;5069755;28;20016;-73
2023/11/22 03:45:33;;;;;;;18.83;10.68;;;4.90;99.90;;;;;;5068911;28;20021;-72
2023/11/22 03:47:59;;;;;;;17.02;10.43;;;4.80;99.90;;;;;;5069382;28;20507;-72
2023/11/22 03:50:24;;;;;;;17.05;10.10;;;4.80;99.90;;;;;;5068901;28;20043;-73
2023/11/22 03:52:50;;;;;;;19.52;10.65;;;4.80;99.90;;;;;;5069300;28;20029;-73
2023/11/22 03:55:16;;;;;;;19.98;10.63;;;4.80;99.90;;;;;;5069047;28;20020;-73
2023/11/22 03:57:41;;;;;;;17.73;10.52;;;4.70;99.90;;;;;;5069005;28;20029;-72
2023/11/22 04:00:09;;;;;;;18.25;10.88;;;4.70;99.90;;;;;;5062647;28;20047;-72
2023/11/22 04:02:35;;;;;;;18.23;10.73;;;4.70;99.90;;;;;;5061879;28;20039;-73
2023/11/22 04:05:01;;;;;;;19.13;10.32;;;4.70;99.90;;;;;;5068603;28;20028;-72
2023/11/22 04:07:26;;;;;;;19.92;10.05;;;4.70;99.90;;;;;;5069086;28;20051;-72
2023/11/22 04:09:53;;;;;;;18.17;10.35;;;4.70;99.90;;;;;;5068654;28;20060;-73
2023/11/22 04:12:19;;;;;;;19.42;11.18;;;4.70;99.90;;;;;;5068920;28;20001;-72
2023/11/22 04:14:45;;;;;;;18.58;10.55;;;4.60;99.90;;;;;;5068773;28;20074;-73
2023/11/22 04:17:11;;;;;;;17.27;10.57;;;4.60;99.90;;;;;;5068328;28;20032;-73
2023/11/22 04:19:37;;;;;;;19.27;10.05;;;4.60;99.90;;;;;;5050738;28;20039;-72
2023/11/22 04:22:03;;;;;;;18.02;10.88;;;4.60;99.90;;;;;;5050609;28;20033;-72
2023/11/22 04:24:28;;;;;;;21.23;10.85;;;4.60;99.90;;;;;;5068307;28;20395;-73
2023/11/22 04:26:54;;;;;;;15.55;9.25;;;4.50;99.90;;;;;;5068646;28;20020;-73
2023/11/22 04:29:20;;;;;;;16.08;9.65;;;4.50;99.90;;;;;;5068347;28;20039;-73
2023/11/22 04:31:45;;;;;;;15.98;9.30;;;4.50;99.90;;;;;;5068615;28;20095;-72
2023/11/22 04:34:11;;;;;;;18.38;9.55;;;4.40;99.90;;;;;;5068578;28;20366;-73
2023/11/22 04:36:38;;;;;;;17.08;10.13;;;4.30;99.90;;;;;;5050336;28;20477;-72
2023/11/22 04:39:04;;;;;;;15.65;9.25;;;4.30;99.90;;;;;;5068503;28;20044;-73
2023/11/22 04:41:30;;;;;;;18.38;9.75;;;4.30;99.90;;;;;;5068345;28;20205;-73
2023/11/22 04:43:55;;;;;;;18.27;9.55;;;4.30;99.90;;;;;;5068670;28;20020;-73
2023/11/22 04:46:21;;;;;;;16.67;9.52;;;4.20;99.90;;;;;;5068210;28;20056;-72
2023/11/22 04:48:50;;;;;;;17.77;9.95;;;4.20;99.90;;;;;;5068443;28;20023;-73
2023/11/22 04:51:16;;;;;;;17.02;9.70;;;4.20;99.90;;;;;;5067829;28;20031;-73
2023/11/22 04:53:43;;;;;;;18.05;10.18;;;4.20;99.90;;;;;;5068126;28;20025;-73
2023/11/22 04:56:09;;;;;;;17.20;10.07;;;4.10;99.90;;;;;;5067893;28;20024;-73
2023/11/22 04:58:35;;;;;;;19.73;10.15;;;4.10;99.90;;;;;;5059762;28;20440;-73
2023/11/22 05:01:01;;;;;;;18.90;9.80;;;4.10;99.90;;;;;;5061573;28;20510;-73
2023/11/22 05:03:27;;;;;;;18.15;10.55;;;4.10;99.90;;;;;;5067691;28;20099;-73
2023/11/22 05:05:53;;;;;;;19.20;9.95;;;4.00;99.90;;;;;;5067675;28;20596;-73
2023/11/22 05:08:18;;;;;;;18.38;9.60;;;4.00;99.90;;;;;;5050134;28;20055;-73
2023/11/22 05:10:44;;;;;;;18.95;10.80;;;4.00;99.90;;;;;;5067883;28;20021;-73
2023/11/22 05:13:10;;;;;;;16.85;9.68;;;4.00;99.90;;;;;;5067847;28;20696;-73
2023/11/22 05:15:36;;;;;;;20.52;10.73;;;4.00;99.90;;;;;;5067298;28;20074;-73
2023/11/22 05:18:02;;;;;;;17.95;10.65;;;4.00;99.90;;;;;;5067900;28;20028;-73
2023/11/22 05:20:28;;;;;;;20.63;10.52;;;4.00;99.90;;;;;;5067248;28;20107;-72
2023/11/22 05:22:53;;;;;;;19.58;10.68;;;3.90;99.90;;;;;;5067839;28;20033;-73
2023/11/22 05:25:19;;;;;;;20.05;9.93;;;3.90;99.90;;;;;;5049197;28;20308;-73
2023/11/22 05:27:45;;;;;;;22.35;10.00;;;3.90;99.90;;;;;;5067743;28;20013;-73
2023/11/22 05:30:11;;;;;;;17.17;10.02;;;3.90;99.90;;;;;;5067305;28;20078;-73
2023/11/22 05:32:36;;;;;;;19.58;10.07;;;3.90;99.90;;;;;;5067413;28;20095;-73
2023/11/22 05:35:03;;;;;;;18.10;9.88;;;3.90;99.90;;;;;;5067106;28;20968;-73
2023/11/22 05:37:29;;;;;;;15.82;8.43;;;3.80;99.90;;;;;;5061654;28;20047;-72
2023/11/22 05:39:55;;;;;;;17.90;9.75;;;3.80;99.90;;;;;;5047208;28;20017;-73
2023/11/22 05:42:20;;;;;;;19.33;10.57;;;3.80;99.90;;;;;;5045891;28;20032;-73
2023/11/22 05:44:46;;;;;;;21.70;11.38;;;3.80;99.90;;;;;;5032769;28;20654;-73
2023/11/22 05:47:13;;;;;;;20.02;10.98;;;3.80;99.90;;;;;;5046765;28;20021;-73
2023/11/22 05:49:38;;;;;;;18.92;10.75;;;3.80;99.90;;;;;;5047059;28;20013;-73
2023/11/22 05:52:04;;;;;;;18.52;10.35;;;3.80;99.90;;;;;;5047093;28;20524;-73
2023/11/22 05:54:31;;;;;;;21.60;10.77;;;3.80;99.90;;;;;;5047262;28;20075;-73
2023/11/22 05:56:57;;;;;;;19.80;10.50;;;3.90;99.90;;;;;;5046940;28;20025;-73
2023/11/22 05:59:23;;;;;;;19.10;10.52;;;3.80;99.90;;;;;;5015286;28;20079;-73
2023/11/22 06:01:49;;;;;;;19.10;11.07;;;3.90;99.90;;;;;;5046842;28;20486;-72
2023/11/22 06:04:15;;;;;;;19.30;10.07;;;3.90;99.90;;;;;;5047214;28;20027;-73
2023/11/22 06:06:40;;;;;;;24.65;11.10;;;3.90;99.90;;;;;;5046531;28;20087;-73
2023/11/22 06:09:07;;;;;;;21.60;10.98;;;3.90;99.90;;;;;;5047339;28;20052;-73
2023/11/22 06:11:33;;;;;;;20.70;11.20;;;3.90;99.90;;;;;;5028440;28;20124;-72
2023/11/22 06:13:59;;;;;;;21.10;11.25;;;3.90;99.90;;;;;;5047115;28;20439;-73
2023/11/22 06:16:25;;;;;;;18.85;10.75;;;3.90;99.90;;;;;;5037440;28;20107;-73
2023/11/22 06:18:51;;;;;;;18.52;10.23;;;3.90;99.90;;;;;;5046760;28;20513;-73
2023/11/22 06:21:17;;;;;;;19.33;10.38;;;3.90;99.90;;;;;;5028464;28;20021;-72
2023/11/22 06:23:42;;;;;;;18.83;9.98;;;4.00;99.90;;;;;;5046680;28;20029;-72
2023/11/22 06:26:09;;;;;;;20.88;10.55;;;3.90;99.90;;;;;;5046515;28;20024;-73
2023/11/22 06:28:35;;;;;;;20.27;10.60;;;4.00;99.90;;;;;;5046787;28;20044;-73
2023/11/22 06:31:00;;;;;;;19.40;10.20;;;4.00;99.90;;;;;;5046170;28;20048;-72
2023/11/22 06:33:26;;;;;;;18.40;10.23;;;4.00;99.90;;;;;;5036121;28;20083;-72
2023/11/22 06:35:52;;;;;;;18.85;10.48;;;4.00;99.90;;;;;;5024861;28;20060;-72
2023/11/22 06:38:17;;;;;;;16.92;9.73;;;4.00;99.90;;;;;;5062106;28;20040;-73
2023/11/22 06:40:44;;;;;;;23.02;10.63;;;4.00;99.90;;;;;;5066281;28;20045;-73
2023/11/22 06:43:10;;;;;;;19.45;10.57;;;4.00;99.90;;;;;;5073404;28;20012;-73
2023/11/22 06:45:36;;;;;;;20.33;10.68;;;4.00;99.90;;;;;;5072298;28;20032;-72
2023/11/22 06:48:02;;;;;;;18.60;10.55;;;4.00;99.90;;;;;;5078986;28;20392;-73
2023/11/22 06:50:27;;;;;;;18.88;10.40;;;4.10;99.90;;;;;;5056085;28;20135;-73
2023/11/22 06:52:53;;;;;;;21.30;11.35;;;4.10;99.90;;;;;;5067915;28;20535;-73
2023/11/22 06:55:19;;;;;;;21.48;11.63;;;4.00;99.90;;;;;;5062118;28;20033;-72
2023/11/22 06:57:44;;;;;;;23.25;10.88;;;4.10;99.90;;;;;;5074301;28;20408;-73
2023/11/22 07:00:12;;;;;;;22.30;10.65;;;4.00;99.90;;;;;;5070344;28;20071;-72
2023/11/22 07:02:38;;;;;;;20.08;11.55;;;4.10;99.90;;;;;;5081219;28;20474;-73
2023/11/22 07:05:08;;;;;;;23.10;11.48;;;4.10;99.90;;;;;;5084039;28;20090;-72
2023/11/22 07:07:35;;;;;;;18.25;11.32;;;4.10;99.90;;;;;;5057985;28;20033;-72
2023/11/22 07:10:01;;;;;;;20.42;11.18;;;4.10;99.90;;;;;;5069704;28;20017;-73
2023/11/22 07:12:27;;;;;;;16.63;10.05;;;4.20;99.90;;;;;;5082821;28;20017;-72
2023/11/22 07:14:53;;;;;;;15.65;8.63;;;4.20;99.90;;;;;;5055161;28;20550;-72
2023/11/22 07:17:19;;;;;;;18.05;9.65;;;4.20;99.90;;;;;;5073336;28;20054;-72
2023/11/22 07:19:48;;;;;;;17.20;9.63;;;4.10;99.90;;;;;;5075658;28;20051;-73
2023/11/22 07:22:17;;;;;;;16.70;8.98;;;4.10;99.90;;;;;;5051698;28;20056;-72
2023/11/22 07:24:45;;;;;;;17.98;9.65;;;4.10;99.90;;;;;;5077162;28;20029;-72
2023/11/22 07:27:14;;;;;;;16.25;9.52;;;4.00;99.90;;;;;;5069695;28;20024;-73
2023/11/22 07:29:44;;;;;;;18.55;9.82;;;4.10;99.90;;;;;;5086269;28;20024;-72
2023/11/22 07:32:10;;;;;;;18.90;10.00;;;4.10;99.90;;;;;;5067181;28;20024;-72
2023/11/22 07:34:37;;;;;;;18.10;9.85;;;4.10;99.90;;;;;;5075460;28;20512;-73
2023/11/22 07:37:03;;;;;;;20.48;8.88;;;4.10;99.90;;;;;;5076421;28;20040;-72
2023/11/22 07:39:29;;;;;;;18.70;10.15;;;4.10;99.90;;;;;;5075236;28;20040;-72
2023/11/22 07:41:55;;;;;;;18.58;9.27;;;4.20;99.90;;;;;;5070064;28;20020;-72
2023/11/22 07:44:22;;;;;;;18.73;10.10;;;4.20;99.90;;;;;;5073195;28;20083;-72
2023/11/22 07:46:48;;;;;;;18.92;10.65;;;4.20;99.90;;;;;;5077626;28;20034;-72
2023/11/22 07:49:14;;;;;;;21.50;10.75;;;4.20;99.90;;;;;;5075087;28;20025;-73
2023/11/22 07:51:41;;;;;;;19.73;11.70;;;4.30;99.90;;;;;;5082171;28;20059;-73
2023/11/22 07:54:07;;;;;;;18.20;10.35;;;4.30;99.90;;;;;;5050494;28;20048;-73
2023/11/22 07:56:32;;;;;;;22.73;11.43;;;4.40;99.90;;;;;;5065586;28;20434;-72
2023/11/22 07:59:01;;;;;;;24.83;12.73;;;4.40;99.90;;;;;;5055004;28;20500;-72
2023/11/22 08:01:29;;;;;;;24.65;12.98;;;4.50;99.90;;;;;;5060000;28;20024;-73
2023/11/22 08:03:55;;;;;;;25.63;13.23;;;4.50;99.90;;;;;;5050089;28;20028;-72
2023/11/22 08:06:21;;;;;;;24.48;12.82;;;4.50;99.90;;;;;;5079533;28;20021;-73
2023/11/22 08:08:47;;;;;;;25.40;14.20;;;4.60;99.90;;;;;;5067360;28;20474;-72
2023/11/22 08:11:17;;;;;;;22.83;12.40;;;4.60;99.90;;;;;;5069643;28;20024;-72
2023/11/22 08:13:44;;;;;;;22.48;12.00;;;4.60;99.90;;;;;;5050491;28;20059;-73
2023/11/22 08:16:13;;;;;;;27.65;13.43;;;4.60;99.90;;;;;;5066335;28;20111;-73
2023/11/22 08:18:39;;;;;;;23.00;12.43;;;4.70;99.90;;;;;;5064597;28;20595;-72
2023/11/22 08:21:05;;;;;;;26.95;14.05;;;4.70;99.90;;;;;;5070876;28;20020;-72
2023/11/22 08:23:32;;;;;;;24.40;14.25;;;4.70;99.90;;;;;;5071118;28;20033;-72
2023/11/22 08:25:59;;;;;;;29.85;15.23;;;4.70;99.90;;;;;;5067910;28;20048;-72
2023/11/22 08:28:25;;;;;;;32.40;16.13;;;4.80;99.90;;;;;;5068350;28;20808;-72
2023/11/22 08:30:51;;;;;;;28.40;15.20;;;4.80;99.90;;;;;;5071099;28;20048;-73
2023/11/22 08:33:17;;;;;;;32.83;15.82;;;4.80;99.90;;;;;;5076611;28;20027;-72
2023/11/22 08:35:43;;;;;;;27.67;14.90;;;4.80;99.90;;;;;;5078079;28;20025;-72
2023/11/22 08:38:09;;;;;;;27.40;14.38;;;4.90;99.90;;;;;;5060771;28;20052;-73
2023/11/22 08:40:37;;;;;;;25.38;14.60;;;4.90;99.90;;;;;;5059087;28;20358;-72
2023/11/22 08:43:05;;;;;;;28.90;15.15;;;4.90;99.90;;;;;;5055699;28;20406;-72
2023/11/22 08:45:31;;;;;;;24.85;14.60;;;4.90;99.90;;;;;;5046505;28;20028;-72
2023/11/22 08:47:58;;;;;;;30.40;15.15;;;5.00;99.90;;;;;;5049753;28;20021;-73
2023/11/22 08:50:24;;;;;;;27.65;14.85;;;5.00;99.90;;;;;;5065000;28;20051;-72
2023/11/22 08:52:52;;;;;;;29.92;15.68;;;5.10;99.90;;;;;;5064305;28;20052;-73
2023/11/22 08:55:21;;;;;;;31.13;16.35;;;5.00;99.90;;;;;;5067186;28;20584;-73
2023/11/22 08:57:48;;;;;;;29.00;15.70;;;5.00;99.90;;;;;;5053453;28;20029;-73
2023/11/22 09:00:14;;;;;;;32.42;16.42;;;5.00;99.90;;;;;;5043030;28;20028;-72
2023/11/22 09:02:40;;;;;;;30.58;16.13;;;5.00;99.90;;;;;;5041022;28;20025;-72
2023/11/22 09:05:08;;;;;;;32.42;15.82;;;5.00;99.90;;;;;;5041176;28;20049;-73
2023/11/22 09:07:35;;;;;;;23.17;13.40;;;5.00;99.90;;;;;;5046012;28;20025;-72
2023/11/22 09:10:09;;;;;;;33.20;16.70;;;5.00;99.90;;;;;;5047985;28;20035;-73
2023/11/22 09:12:40;;;;;;;26.05;15.40;;;5.00;99.90;;;;;;5045647;28;20426;-73
2023/11/22 09:15:09;;;;;;;;;;;5.10;99.90;;;;;;5051109;28;20025;-73
2023/11/22 09:17:42;;;;;;;27.92;15.43;;;5.10;99.90;;;;;;5039300;28;19924;-72
2023/11/22 09:20:11;;;;;;;26.85;15.52;;;5.10;99.90;;;;;;5046649;28;20041;-73
2023/11/22 09:22:49;;;;;;;27.50;15.13;;;5.10;99.90;;;;;;5029270;28;20104;-73
2023/11/22 09:25:27;;;;;;;28.77;16.10;;;5.10;99.90;;;;;;5047296;28;20107;-73
2023/11/22 09:27:59;;;;;;;29.42;16.60;;;5.10;99.90;;;;;;5032300;28;20025;-73
2023/11/22 09:30:32;;;;;;;30.08;16.77;;;5.10;99.90;;;;;;5039948;28;20039;-72
2023/11/22 09:32:59;;;;;;;30.38;16.25;;;5.10;99.90;;;;;;5044822;28;20032;-73
2023/11/22 09:35:25;;;;;;;28.08;16.60;;;5.10;99.90;;;;;;5059073;28;20043;-73
2023/11/22 09:37:51;;;;;;;28.50;17.85;;;5.10;99.90;;;;;;5054211;28;20127;-74
2023/11/22 09:40:22;;;;;;;27.95;17.00;;;5.10;99.90;;;;;;5060271;28;20116;-73
2023/11/22 09:42:51;;;;;;;29.98;17.08;;;5.10;99.90;;;;;;5051106;28;20025;-73
2023/11/22 09:45:20;;;;;;;26.83;15.65;;;5.10;99.90;;;;;;5037146;28;20024;-73
2023/11/22 09:47:47;;;;;;;27.13;15.88;;;5.10;99.90;;;;;;5050149;28;20150;-73
2023/11/22 09:50:34;;;;;;;29.08;16.88;;;5.20;99.90;;;;;;5046976;28;20075;-75
2023/11/22 09:53:06;;;;;;;30.30;16.98;;;5.30;99.90;;;;;;5049627;28;20474;-73
2023/11/22 09:55:32;;;;;;;38.40;24.35;;;5.30;99.90;;;;;;5055584;28;20966;-73
2023/11/22 09:58:02;;;;;;;32.95;21.88;;;5.30;99.90;;;;;;5037381;28;20029;-72
2023/11/22 10:00:30;;;;;;;34.83;23.88;;;5.30;99.90;;;;;;5046841;28;20385;-72
2023/11/22 10:02:57;;;;;;;32.65;19.55;;;5.30;99.90;;;;;;5046522;28;20056;-72
2023/11/22 10:05:23;;;;;;;28.88;18.25;;;5.30;99.90;;;;;;5046483;28;20021;-72
2023/11/22 10:07:52;;;;;;;27.23;16.98;;;5.30;99.90;;;;;;5046244;28;20067;-72
2023/11/22 10:10:22;;;;;;;31.65;20.50;;;5.40;99.90;;;;;;5045327;28;20053;-73
2023/11/22 10:12:48;;;;;;;29.60;17.85;;;5.40;99.90;;;;;;5051641;28;20024;-73
2023/11/22 10:15:16;;;;;;;26.25;16.60;;;5.40;99.90;;;;;;5036112;28;20016;-73
2023/11/22 10:17:56;;;;;;;27.65;15.55;;;5.40;99.90;;;;;;5052185;28;20490;-73
2023/11/22 10:20:23;;;;;;;23.77;14.32;;;5.50;99.90;;;;;;5048578;28;20033;-72
2023/11/22 10:22:49;;;;;;;24.10;14.45;;;5.50;99.90;;;;;;5050420;28;20108;-73
2023/11/22 10:25:18;;;;;;;23.20;15.40;;;5.60;99.90;;;;;;5050999;28;20123;-73
2023/11/22 10:27:45;;;;;;;25.63;13.80;;;5.60;99.90;;;;;;5045682;28;20021;-73
2023/11/22 10:30:11;;;;;;;21.92;13.38;;;5.60;99.90;;;;;;5054372;28;20769;-73
2023/11/22 10:32:41;;;;;;;23.73;14.52;;;5.60;99.90;;;;;;5057669;28;20044;-73
2023/11/22 10:35:07;;;;;;;22.77;13.32;;;5.60;99.90;;;;;;5048616;28;20035;-72
2023/11/22 10:37:34;;;;;;;21.17;12.57;;;5.60;99.90;;;;;;5051845;28;20222;-72
2023/11/22 10:39:59;;;;;;;23.05;13.73;;;5.60;99.90;;;;;;5050771;28;20029;-73
2023/11/22 10:42:27;;;;;;;22.27;14.48;;;5.70;99.90;;;;;;5057150;28;20035;-73
2023/11/22 10:44:57;;;;;;;21.73;14.07;;;5.70;99.90;;;;;;5058667;28;20016;-74
2023/11/22 10:47:23;;;;;;;21.05;13.63;;;5.70;99.90;;;;;;5065188;28;20025;-73
2023/11/22 10:49:50;;;;;;;22.33;13.68;;;5.70;99.90;;;;;;5047578;28;20120;-73
2023/11/22 10:52:18;;;;;;;23.02;13.93;;;5.80;99.90;;;;;;5048268;28;20055;-74
2023/11/22 10:54:50;;;;;;;20.55;13.65;;;5.80;99.90;;;;;;5051737;28;20032;-74
2023/11/22 10:57:19;;;;;;;19.88;13.25;;;5.90;99.90;;;;;;5050602;28;20035;-73
2023/11/22 10:59:53;;;;;;;19.70;13.25;;;5.90;99.90;;;;;;5057158;28;20478;-73
2023/11/22 11:02:22;;;;;;;19.58;13.13;;;6.00;99.90;;;;;;5052380;28;20037;-73
2023/11/22 11:04:59;;;;;;;20.40;13.07;;;6.00;99.90;;;;;;5051264;28;20115;-74
2023/11/22 11:07:30;;;;;;;21.58;13.50;;;6.00;99.90;;;;;;5045297;28;20434;-74
2023/11/22 11:09:57;;;;;;;19.80;12.82;;;6.00;99.90;;;;;;5047381;28;20472;-74
2023/11/22 11:12:23;;;;;;;20.85;12.38;;;6.10;99.90;;;;;;5027736;28;20433;-73
2023/11/22 11:14:51;;;;;;;18.95;12.48;;;6.10;99.90;;;;;;5028477;28;20913;-72
2023/11/22 11:17:17;;;;;;;20.30;11.90;;;6.10;99.90;;;;;;5045501;28;20025;-73
2023/11/22 11:19:43;;;;;;;26.73;13.88;;;6.20;99.90;;;;;;5057615;28;20123;-73
2023/11/22 11:22:10;;;;;;;16.17;11.98;;;6.20;99.90;;;;;;5058961;28;20107;-73
2023/11/22 11:24:44;;;;;;;18.77;12.80;;;6.30;99.90;;;;;;5051634;28;20108;-73
2023/11/22 11:27:13;;;;;;;21.27;13.18;;;6.30;99.90;;;;;;5047427;28;20564;-74
2023/11/22 11:29:42;;;;;;;19.02;12.60;;;6.30;99.90;;;;;;5058377;28;20021;-73
2023/11/22 11:32:15;;;;;;;22.63;14.57;;;6.40;99.90;;;;;;5048236;28;20033;-73
2023/11/22 11:34:51;;;;;;;21.77;13.50;;;6.50;99.90;;;;;;5038407;28;20444;-73
2023/11/22 11:37:19;;;;;;;20.70;14.38;;;6.60;99.90;;;;;;5052893;28;20048;-73
2023/11/22 11:39:45;;;;;;;25.63;16.05;;;6.60;99.90;;;;;;5045716;28;20124;-73
2023/11/22 11:42:13;;;;;;;27.08;16.25;;;6.70;99.90;;;;;;5045225;28;20562;-73
2023/11/22 11:44:57;;;;;;;24.27;15.15;;;6.70;99.90;;;;;;5047582;28;20032;-73
2023/11/22 11:47:22;;;;;;;22.50;14.63;;;6.70;99.90;;;;;;5046044;28;20895;-73
2023/11/22 11:49:50;;;;;;;22.83;14.82;;;6.60;99.90;;;;;;5043792;28;20053;-73
2023/11/22 11:52:16;;;;;;;26.40;16.38;;;6.60;99.90;;;;;;5044470;28;20052;-73
2023/11/22 11:54:41;;;;;;;20.88;13.05;;;6.60;99.90;;;;;;5049348;28;20466;-73
2023/11/22 11:57:08;;;;;;;21.85;13.20;;;6.60;99.90;;;;;;5044786;28;20025;-73
2023/11/22 11:59:35;;;;;;;20.77;13.63;;;6.60;99.90;;;;;;5047182;28;20067;-73
2023/11/22 12:02:01;;;;;;;24.98;14.80;;;6.50;99.90;;;;;;5044612;28;20067;-73
2023/11/22 12:04:27;;;;;;;26.15;14.93;;;6.50;99.90;;;;;;5047895;28;20036;-73
2023/11/22 12:06:52;;;;;;;32.50;14.15;;;6.50;99.90;;;;;;5042972;28;20671;-73
2023/11/22 12:09:30;;;;;;;22.15;15.48;;;6.40;99.90;;;;;;5047674;28;20096;-73
2023/11/22 12:11:59;;;;;;;24.92;16.08;;;6.40;99.90;;;;;;5047192;28;20025;-73
2023/11/22 12:14:25;;;;;;;25.17;16.40;;;6.40;99.90;;;;;;5034191;28;20075;-72
2023/11/22 12:16:54;;;;;;;27.27;17.27;;;6.40;99.90;;;;;;5047373;28;20087;-74
2023/11/22 12:19:24;;;;;;;24.83;15.90;;;6.40;99.90;;;;;;5049510;28;20041;-74
2023/11/22 12:21:50;;;;;;;26.73;16.55;;;6.30;99.90;;;;;;5048421;28;20504;-73
2023/11/22 12:24:16;;;;;;;26.60;16.33;;;6.40;99.90;;;;;;5048774;28;20025;-73
2023/11/22 12:26:51;;;;;;;27.55;15.30;;;6.40;99.90;;;;;;5037775;28;20104;-73
2023/11/22 12:29:20;;;;;;;24.50;15.55;;;6.50;99.90;;;;;;5048846;28;20083;-73
2023/11/22 12:31:55;;;;;;;26.08;14.82;;;6.70;99.90;;;;;;5048013;28;20021;-73
2023/11/22 12:34:21;;;;;;;23.65;15.05;;;6.80;99.90;;;;;;5048796;28;20025;-74
2023/11/22 12:36:47;;;;;;;23.95;16.00;;;6.80;99.90;;;;;;5047962;28;20112;-73